sensor_id;sensor_type;location;lat;lon;timestamp;P1;durP1;ratioP1;P2;durP2;ratioP2
75071;SDS011;63651;55.728;38.022;2023-04-25T00:00:30;28.90;;;27.02;;
75071;SDS011;63651;55.728;38.022;2023-04-25T00:05:31;41.25;;;38.95;;
75071;SDS011;63651;55.728;38.022;2023-04-25T00:10:32;44.08;;;41.63;;
75071;SDS011;63651;55.728;38.022;2023-04-25T00:15:34;59.72;;;56.80;;
75071;SDS011;63651;55.728;38.022;2023-04-25T00:20:36;74.63;;;71.38;;
75071;SDS011;63651;55.728;38.022;2023-04-25T00:25:37;68.90;;;65.95;;
75071;SDS011;63651;55.728;38.022;2023-04-25T00:30:39;75.05;;;71.95;;
75071;SDS011;63651;55.728;38.022;2023-04-25T00:35:41;82.10;;;78.72;;
75071;SDS011;63651;55.728;38.022;2023-04-25T00:40:42;106.05;;;101.68;;
75071;SDS011;63651;55.728;38.022;2023-04-25T00:45:44;110.15;;;105.72;;
75071;SDS011;63651;55.728;38.022;2023-04-25T00:50:57;97.20;;;93.47;;
75071;SDS011;63651;55.728;38.022;2023-04-25T00:55:59;91.75;;;88.18;;
75071;SDS011;63651;55.728;38.022;2023-04-25T01:01:00;106.25;;;102.43;;
75071;SDS011;63651;55.728;38.022;2023-04-25T01:06:01;116.40;;;112.15;;
75071;SDS011;63651;55.728;38.022;2023-04-25T01:11:03;117.65;;;113.35;;
75071;SDS011;63651;55.728;38.022;2023-04-25T01:16:05;122.53;;;118.22;;
75071;SDS011;63651;55.728;38.022;2023-04-25T01:21:09;138.10;;;133.20;;
75071;SDS011;63651;55.728;38.022;2023-04-25T01:26:11;123.28;;;118.97;;
75071;SDS011;63651;55.728;38.022;2023-04-25T01:31:13;125.22;;;120.95;;
75071;SDS011;63651;55.728;38.022;2023-04-25T01:36:16;146.82;;;141.90;;
75071;SDS011;63651;55.728;38.022;2023-04-25T01:41:18;150.20;;;145.15;;
75071;SDS011;63651;55.728;38.022;2023-04-25T01:46:19;202.48;;;195.55;;
75071;SDS011;63651;55.728;38.022;2023-04-25T01:51:20;185.80;;;179.73;;
75071;SDS011;63651;55.728;38.022;2023-04-25T01:56:21;172.13;;;165.93;;
75071;SDS011;63651;55.728;38.022;2023-04-25T02:01:22;133.88;;;129.10;;
75071;SDS011;63651;55.728;38.022;2023-04-25T02:06:23;160.65;;;154.80;;
75071;SDS011;63651;55.728;38.022;2023-04-25T02:11:24;174.18;;;168.30;;
75071;SDS011;63651;55.728;38.022;2023-04-25T02:16:25;142.82;;;137.35;;
75071;SDS011;63651;55.728;38.022;2023-04-25T02:21:26;228.90;;;221.23;;
75071;SDS011;63651;55.728;38.022;2023-04-25T02:26:28;158.10;;;152.35;;
75071;SDS011;63651;55.728;38.022;2023-04-25T02:31:29;165.88;;;160.05;;
75071;SDS011;63651;55.728;38.022;2023-04-25T02:36:30;141.25;;;135.82;;
75071;SDS011;63651;55.728;38.022;2023-04-25T02:41:34;162.40;;;156.93;;
75071;SDS011;63651;55.728;38.022;2023-04-25T02:46:35;149.63;;;144.38;;
75071;SDS011;63651;55.728;38.022;2023-04-25T02:51:36;169.07;;;163.30;;
75071;SDS011;63651;55.728;38.022;2023-04-25T02:56:37;146.13;;;140.82;;
75071;SDS011;63651;55.728;38.022;2023-04-25T03:01:38;207.57;;;200.63;;
75071;SDS011;63651;55.728;38.022;2023-04-25T03:06:39;151.32;;;145.85;;
75071;SDS011;63651;55.728;38.022;2023-04-25T03:11:41;191.93;;;185.43;;
75071;SDS011;63651;55.728;38.022;2023-04-25T03:16:42;165.15;;;159.05;;
75071;SDS011;63651;55.728;38.022;2023-04-25T03:21:43;169.23;;;163.23;;
75071;SDS011;63651;55.728;38.022;2023-04-25T03:26:44;170.27;;;163.93;;
75071;SDS011;63651;55.728;38.022;2023-04-25T03:31:45;183.70;;;177.40;;
75071;SDS011;63651;55.728;38.022;2023-04-25T03:36:47;214.65;;;207.32;;
75071;SDS011;63651;55.728;38.022;2023-04-25T03:41:48;189.70;;;183.25;;
75071;SDS011;63651;55.728;38.022;2023-04-25T03:46:49;185.32;;;178.98;;
75071;SDS011;63651;55.728;38.022;2023-04-25T03:51:50;181.10;;;174.65;;
75071;SDS011;63651;55.728;38.022;2023-04-25T03:56:51;229.90;;;222.57;;
75071;SDS011;63651;55.728;38.022;2023-04-25T04:01:52;211.30;;;203.85;;
75071;SDS011;63651;55.728;38.022;2023-04-25T04:06:53;208.30;;;201.40;;
75071;SDS011;63651;55.728;38.022;2023-04-25T04:11:54;183.93;;;177.70;;
75071;SDS011;63651;55.728;38.022;2023-04-25T04:16:55;178.48;;;172.20;;
75071;SDS011;63651;55.728;38.022;2023-04-25T04:21:56;234.65;;;226.98;;
75071;SDS011;63651;55.728;38.022;2023-04-25T04:26:58;213.20;;;206.10;;
75071;SDS011;63651;55.728;38.022;2023-04-25T04:31:59;189.88;;;183.60;;
75071;SDS011;63651;55.728;38.022;2023-04-25T04:37:01;177.63;;;171.43;;
75071;SDS011;63651;55.728;38.022;2023-04-25T04:42:03;200.25;;;193.10;;
75071;SDS011;63651;55.728;38.022;2023-04-25T04:47:05;194.82;;;188.25;;
75071;SDS011;63651;55.728;38.022;2023-04-25T04:52:06;201.88;;;195.25;;
75071;SDS011;63651;55.728;38.022;2023-04-25T04:57:07;207.02;;;199.45;;
75071;SDS011;63651;55.728;38.022;2023-04-25T05:02:27;228.18;;;220.30;;
75071;SDS011;63651;55.728;38.022;2023-04-25T05:07:28;245.27;;;234.45;;
75071;SDS011;63651;55.728;38.022;2023-04-25T05:12:29;386.00;;;370.77;;
75071;SDS011;63651;55.728;38.022;2023-04-25T05:17:31;443.40;;;425.52;;
75071;SDS011;63651;55.728;38.022;2023-04-25T05:22:33;522.08;;;499.83;;
75071;SDS011;63651;55.728;38.022;2023-04-25T05:27:34;600.80;;;574.53;;
75071;SDS011;63651;55.728;38.022;2023-04-25T05:32:35;630.03;;;600.40;;
75071;SDS011;63651;55.728;38.022;2023-04-25T05:37:36;660.08;;;630.92;;
75071;SDS011;63651;55.728;38.022;2023-04-25T05:42:37;621.33;;;591.42;;
75071;SDS011;63651;55.728;38.022;2023-04-25T05:47:38;552.28;;;529.60;;
75071;SDS011;63651;55.728;38.022;2023-04-25T05:52:39;703.55;;;671.30;;
75071;SDS011;63651;55.728;38.022;2023-04-25T05:57:40;640.65;;;610.88;;
75071;SDS011;63651;55.728;38.022;2023-04-25T06:02:42;541.15;;;518.40;;
75071;SDS011;63651;55.728;38.022;2023-04-25T06:07:43;468.60;;;450.02;;
75071;SDS011;63651;55.728;38.022;2023-04-25T06:12:45;458.65;;;440.90;;
75071;SDS011;63651;55.728;38.022;2023-04-25T06:17:46;413.33;;;397.98;;
75071;SDS011;63651;55.728;38.022;2023-04-25T06:28:07;431.67;;;415.55;;
75071;SDS011;63651;55.728;38.022;2023-04-25T06:33:08;446.88;;;431.27;;
75071;SDS011;63651;55.728;38.022;2023-04-25T06:38:09;425.67;;;410.15;;
75071;SDS011;63651;55.728;38.022;2023-04-25T06:43:10;436.13;;;419.83;;
75071;SDS011;63651;55.728;38.022;2023-04-25T06:48:11;412.83;;;397.60;;
75071;SDS011;63651;55.728;38.022;2023-04-25T06:53:12;417.67;;;402.33;;
75071;SDS011;63651;55.728;38.022;2023-04-25T06:58:13;457.98;;;440.80;;
75071;SDS011;63651;55.728;38.022;2023-04-25T07:03:15;446.70;;;430.15;;
75071;SDS011;63651;55.728;38.022;2023-04-25T07:08:16;481.52;;;463.55;;
75071;SDS011;63651;55.728;38.022;2023-04-25T07:13:17;462.88;;;445.35;;
75071;SDS011;63651;55.728;38.022;2023-04-25T07:18:18;518.05;;;497.63;;
75071;SDS011;63651;55.728;38.022;2023-04-25T07:23:20;492.08;;;473.10;;
75071;SDS011;63651;55.728;38.022;2023-04-25T07:28:21;530.28;;;510.33;;
75071;SDS011;63651;55.728;38.022;2023-04-25T07:33:22;468.55;;;451.20;;
75071;SDS011;63651;55.728;38.022;2023-04-25T07:38:23;476.60;;;458.75;;
75071;SDS011;63651;55.728;38.022;2023-04-25T07:43:24;572.33;;;548.55;;
75071;SDS011;63651;55.728;38.022;2023-04-25T07:48:26;468.83;;;450.75;;
75071;SDS011;63651;55.728;38.022;2023-04-25T07:53:27;501.25;;;481.75;;
75071;SDS011;63651;55.728;38.022;2023-04-25T07:58:28;499.13;;;479.60;;
75071;SDS011;63651;55.728;38.022;2023-04-25T08:03:29;542.58;;;520.83;;
75071;SDS011;63651;55.728;38.022;2023-04-25T08:08:30;502.55;;;483.05;;
75071;SDS011;63651;55.728;38.022;2023-04-25T08:13:31;511.13;;;491.50;;
75071;SDS011;63651;55.728;38.022;2023-04-25T08:18:33;595.28;;;570.83;;
75071;SDS011;63651;55.728;38.022;2023-04-25T08:23:34;608.25;;;580.50;;
75071;SDS011;63651;55.728;38.022;2023-04-25T08:28:35;497.98;;;478.15;;
75071;SDS011;63651;55.728;38.022;2023-04-25T08:33:36;526.38;;;505.45;;
75071;SDS011;63651;55.728;38.022;2023-04-25T08:38:37;577.72;;;554.58;;
75071;SDS011;63651;55.728;38.022;2023-04-25T08:43:38;541.50;;;519.85;;
75071;SDS011;63651;55.728;38.022;2023-04-25T08:48:43;567.75;;;544.45;;
75071;SDS011;63651;55.728;38.022;2023-04-25T08:53:45;518.22;;;498.55;;
75071;SDS011;63651;55.728;38.022;2023-04-25T08:58:51;628.33;;;603.67;;
75071;SDS011;63651;55.728;38.022;2023-04-25T09:03:52;623.75;;;596.92;;
75071;SDS011;63651;55.728;38.022;2023-04-25T09:08:54;541.15;;;519.85;;
75071;SDS011;63651;55.728;38.022;2023-04-25T09:19:24;431.23;;;415.20;;
75071;SDS011;63651;55.728;38.022;2023-04-25T09:24:44;469.63;;;451.67;;
75071;SDS011;63651;55.728;38.022;2023-04-25T09:29:56;417.38;;;402.58;;
75071;SDS011;63651;55.728;38.022;2023-04-25T09:35:00;492.88;;;474.35;;
75071;SDS011;63651;55.728;38.022;2023-04-25T09:40:05;491.73;;;471.20;;
75071;SDS011;63651;55.728;38.022;2023-04-25T09:45:08;439.10;;;423.35;;
75071;SDS011;63651;55.728;38.022;2023-04-25T09:50:14;431.50;;;415.40;;
75071;SDS011;63651;55.728;38.022;2023-04-25T09:55:16;430.42;;;413.60;;
75071;SDS011;63651;55.728;38.022;2023-04-25T10:00:17;463.52;;;446.02;;
75071;SDS011;63651;55.728;38.022;2023-04-25T10:05:20;346.73;;;335.13;;
75071;SDS011;63651;55.728;38.022;2023-04-25T10:10:21;321.95;;;311.20;;
75071;SDS011;63651;55.728;38.022;2023-04-25T10:15:26;317.40;;;306.75;;
75071;SDS011;63651;55.728;38.022;2023-04-25T10:20:28;306.65;;;295.85;;
75071;SDS011;63651;55.728;38.022;2023-04-25T10:25:30;305.08;;;294.92;;
75071;SDS011;63651;55.728;38.022;2023-04-25T10:30:32;295.60;;;285.17;;
75071;SDS011;63651;55.728;38.022;2023-04-25T10:35:33;275.67;;;266.65;;
75071;SDS011;63651;55.728;38.022;2023-04-25T10:40:35;379.05;;;365.63;;
75071;SDS011;63651;55.728;38.022;2023-04-25T10:45:52;343.80;;;331.95;;
75071;SDS011;63651;55.728;38.022;2023-04-25T10:51:39;289.58;;;280.15;;
75071;SDS011;63651;55.728;38.022;2023-04-25T10:56:19;336.98;;;325.33;;
75071;SDS011;63651;55.728;38.022;2023-04-25T11:01:24;267.77;;;258.52;;
75071;SDS011;63651;55.728;38.022;2023-04-25T11:06:29;353.98;;;341.58;;
75071;SDS011;63651;55.728;38.022;2023-04-25T11:11:41;303.10;;;292.70;;
75071;SDS011;63651;55.728;38.022;2023-04-25T11:16:42;301.33;;;291.15;;
75071;SDS011;63651;55.728;38.022;2023-04-25T11:21:43;386.85;;;373.08;;
75071;SDS011;63651;55.728;38.022;2023-04-25T11:26:46;363.52;;;350.38;;
75071;SDS011;63651;55.728;38.022;2023-04-25T11:31:48;451.15;;;434.83;;
75071;SDS011;63651;55.728;38.022;2023-04-25T11:36:49;350.95;;;338.95;;
75071;SDS011;63651;55.728;38.022;2023-04-25T11:41:51;344.50;;;332.75;;
75071;SDS011;63651;55.728;38.022;2023-04-25T11:46:53;362.27;;;349.70;;
75071;SDS011;63651;55.728;38.022;2023-04-25T11:51:54;416.30;;;401.15;;
75071;SDS011;63651;55.728;38.022;2023-04-25T11:56:55;390.25;;;376.75;;
75071;SDS011;63651;55.728;38.022;2023-04-25T12:01:57;355.10;;;342.50;;
75071;SDS011;63651;55.728;38.022;2023-04-25T12:06:58;355.95;;;343.83;;
75071;SDS011;63651;55.728;38.022;2023-04-25T12:12:01;389.90;;;376.60;;
75071;SDS011;63651;55.728;38.022;2023-04-25T12:17:03;373.38;;;360.10;;
75071;SDS011;63651;55.728;38.022;2023-04-25T12:22:19;424.60;;;409.23;;
75071;SDS011;63651;55.728;38.022;2023-04-25T12:27:22;348.27;;;336.25;;
75071;SDS011;63651;55.728;38.022;2023-04-25T12:32:27;374.30;;;360.45;;
75071;SDS011;63651;55.728;38.022;2023-04-25T12:37:28;359.08;;;346.55;;
75071;SDS011;63651;55.728;38.022;2023-04-25T12:42:29;423.77;;;408.17;;
75071;SDS011;63651;55.728;38.022;2023-04-25T12:47:30;392.02;;;378.08;;
75071;SDS011;63651;55.728;38.022;2023-04-25T12:52:31;355.63;;;342.92;;
75071;SDS011;63651;55.728;38.022;2023-04-25T12:57:32;360.60;;;347.98;;
75071;SDS011;63651;55.728;38.022;2023-04-25T13:02:33;379.63;;;366.02;;
75071;SDS011;63651;55.728;38.022;2023-04-25T13:07:34;360.73;;;347.90;;
75071;SDS011;63651;55.728;38.022;2023-04-25T13:12:35;386.67;;;371.67;;
75071;SDS011;63651;55.728;38.022;2023-04-25T13:17:37;328.35;;;317.08;;
75071;SDS011;63651;55.728;38.022;2023-04-25T13:22:38;301.75;;;291.55;;
75071;SDS011;63651;55.728;38.022;2023-04-25T13:27:40;256.17;;;246.43;;
75071;SDS011;63651;55.728;38.022;2023-04-25T13:32:41;382.50;;;368.45;;
75071;SDS011;63651;55.728;38.022;2023-04-25T13:37:42;373.80;;;360.05;;
75071;SDS011;63651;55.728;38.022;2023-04-25T13:42:43;467.83;;;450.35;;
75071;SDS011;63651;55.728;38.022;2023-04-25T13:47:46;443.95;;;426.60;;
75071;SDS011;63651;55.728;38.022;2023-04-25T13:52:47;497.73;;;476.67;;
75071;SDS011;63651;55.728;38.022;2023-04-25T13:57:48;520.42;;;500.70;;
75071;SDS011;63651;55.728;38.022;2023-04-25T14:02:49;561.28;;;537.00;;
75071;SDS011;63651;55.728;38.022;2023-04-25T14:07:50;627.17;;;599.72;;
75071;SDS011;63651;55.728;38.022;2023-04-25T14:12:51;573.20;;;549.95;;
75071;SDS011;63651;55.728;38.022;2023-04-25T14:17:52;572.28;;;548.40;;
75071;SDS011;63651;55.728;38.022;2023-04-25T14:22:53;592.97;;;566.53;;
75071;SDS011;63651;55.728;38.022;2023-04-25T14:27:56;597.40;;;571.80;;
75071;SDS011;63651;55.728;38.022;2023-04-25T14:32:57;602.13;;;577.13;;
75071;SDS011;63651;55.728;38.022;2023-04-25T14:37:58;602.42;;;576.53;;
75071;SDS011;63651;55.728;38.022;2023-04-25T14:42:59;531.65;;;510.45;;
75071;SDS011;63651;55.728;38.022;2023-04-25T14:48:00;451.13;;;433.23;;
75071;SDS011;63651;55.728;38.022;2023-04-25T14:53:01;560.10;;;537.38;;
75071;SDS011;63651;55.728;38.022;2023-04-25T14:58:02;604.58;;;579.45;;
75071;SDS011;63651;55.728;38.022;2023-04-25T15:03:03;565.58;;;542.15;;
75071;SDS011;63651;55.728;38.022;2023-04-25T15:08:05;489.55;;;470.55;;
75071;SDS011;63651;55.728;38.022;2023-04-25T15:13:06;448.73;;;432.90;;
75071;SDS011;63651;55.728;38.022;2023-04-25T15:18:08;439.73;;;423.35;;
75071;SDS011;63651;55.728;38.022;2023-04-25T15:23:09;403.30;;;388.48;;
75071;SDS011;63651;55.728;38.022;2023-04-25T15:28:10;401.38;;;386.88;;
75071;SDS011;63651;55.728;38.022;2023-04-25T15:33:12;364.33;;;351.65;;
75071;SDS011;63651;55.728;38.022;2023-04-25T15:38:14;378.50;;;364.90;;
75071;SDS011;63651;55.728;38.022;2023-04-25T15:43:15;327.40;;;316.25;;
75071;SDS011;63651;55.728;38.022;2023-04-25T15:48:16;329.95;;;318.52;;
75071;SDS011;63651;55.728;38.022;2023-04-25T15:53:17;318.35;;;307.45;;
75071;SDS011;63651;55.728;38.022;2023-04-25T15:58:18;301.88;;;291.92;;
75071;SDS011;63651;55.728;38.022;2023-04-25T16:03:19;461.83;;;441.75;;
75071;SDS011;63651;55.728;38.022;2023-04-25T16:08:21;453.05;;;436.08;;
75071;SDS011;63651;55.728;38.022;2023-04-25T16:13:22;427.45;;;409.77;;
75071;SDS011;63651;55.728;38.022;2023-04-25T16:23:43;342.27;;;328.42;;
75071;SDS011;63651;55.728;38.022;2023-04-25T16:28:44;537.33;;;514.95;;
75071;SDS011;63651;55.728;38.022;2023-04-25T16:33:45;475.38;;;455.08;;
75071;SDS011;63651;55.728;38.022;2023-04-25T16:38:46;319.05;;;307.80;;
75071;SDS011;63651;55.728;38.022;2023-04-25T16:43:47;288.33;;;276.65;;
75071;SDS011;63651;55.728;38.022;2023-04-25T16:48:48;290.27;;;280.02;;
75071;SDS011;63651;55.728;38.022;2023-04-25T16:53:49;339.15;;;325.10;;
75071;SDS011;63651;55.728;38.022;2023-04-25T16:58:51;454.20;;;436.92;;
75071;SDS011;63651;55.728;38.022;2023-04-25T17:03:52;476.27;;;455.73;;
75071;SDS011;63651;55.728;38.022;2023-04-25T17:08:53;349.80;;;336.13;;
75071;SDS011;63651;55.728;38.022;2023-04-25T17:13:54;333.35;;;318.52;;
75071;SDS011;63651;55.728;38.022;2023-04-25T17:18:55;392.73;;;376.48;;
75071;SDS011;63651;55.728;38.022;2023-04-25T17:23:58;586.17;;;562.70;;
75071;SDS011;63651;55.728;38.022;2023-04-25T17:28:59;459.63;;;441.58;;
75071;SDS011;63651;55.728;38.022;2023-04-25T17:34:00;568.78;;;544.10;;
75071;SDS011;63651;55.728;38.022;2023-04-25T17:39:01;727.70;;;693.53;;
75071;SDS011;63651;55.728;38.022;2023-04-25T17:44:05;682.15;;;649.90;;
75071;SDS011;63651;55.728;38.022;2023-04-25T17:49:06;800.40;;;756.13;;
75071;SDS011;63651;55.728;38.022;2023-04-25T17:54:07;810.22;;;766.28;;
75071;SDS011;63651;55.728;38.022;2023-04-25T17:59:09;866.97;;;814.33;;
75071;SDS011;63651;55.728;38.022;2023-04-25T18:04:11;902.00;;;846.42;;
75071;SDS011;63651;55.728;38.022;2023-04-25T18:09:12;914.90;;;858.42;;
75071;SDS011;63651;55.728;38.022;2023-04-25T18:14:32;964.08;;;897.92;;
75071;SDS011;63651;55.728;38.022;2023-04-25T18:19:36;1005.90;;;927.60;;
75071;SDS011;63651;55.728;38.022;2023-04-25T18:24:37;982.70;;;917.20;;
75071;SDS011;63651;55.728;38.022;2023-04-25T18:29:38;1008.47;;;932.88;;
75071;SDS011;63651;55.728;38.022;2023-04-25T18:34:41;927.47;;;862.55;;
75071;SDS011;63651;55.728;38.022;2023-04-25T18:39:45;1064.32;;;973.72;;
75071;SDS011;63651;55.728;38.022;2023-04-25T18:44:46;1003.40;;;925.88;;
75071;SDS011;63651;55.728;38.022;2023-04-25T18:49:47;1034.20;;;954.83;;
75071;SDS011;63651;55.728;38.022;2023-04-25T18:54:50;1063.28;;;967.67;;
75071;SDS011;63651;55.728;38.022;2023-04-25T18:59:52;1089.93;;;987.30;;
75071;SDS011;63651;55.728;38.022;2023-04-25T19:04:53;1055.57;;;968.50;;
75071;SDS011;63651;55.728;38.022;2023-04-25T19:09:54;1090.35;;;988.92;;
75071;SDS011;63651;55.728;38.022;2023-04-25T19:14:56;1067.90;;;977.28;;
75071;SDS011;63651;55.728;38.022;2023-04-25T19:19:57;1067.78;;;982.38;;
75071;SDS011;63651;55.728;38.022;2023-04-25T19:24:58;1028.53;;;952.42;;
75071;SDS011;63651;55.728;38.022;2023-04-25T19:29:59;999.40;;;927.55;;
75071;SDS011;63651;55.728;38.022;2023-04-25T19:35:07;1020.65;;;948.67;;
75071;SDS011;63651;55.728;38.022;2023-04-25T19:40:10;1002.78;;;932.03;;
75071;SDS011;63651;55.728;38.022;2023-04-25T19:45:12;1007.88;;;935.70;;
75071;SDS011;63651;55.728;38.022;2023-04-25T19:50:13;986.78;;;920.25;;
75071;SDS011;63651;55.728;38.022;2023-04-25T19:55:14;969.10;;;904.88;;
75071;SDS011;63651;55.728;38.022;2023-04-25T20:00:15;1005.35;;;933.45;;
75071;SDS011;63651;55.728;38.022;2023-04-25T20:05:18;993.05;;;922.17;;
75071;SDS011;63651;55.728;38.022;2023-04-25T20:10:19;989.60;;;918.90;;
75071;SDS011;63651;55.728;38.022;2023-04-25T20:15:20;989.72;;;918.47;;
75071;SDS011;63651;55.728;38.022;2023-04-25T20:20:21;1024.03;;;948.55;;
75071;SDS011;63651;55.728;38.022;2023-04-25T20:25:22;1036.85;;;959.25;;
75071;SDS011;63651;55.728;38.022;2023-04-25T20:30:24;1006.92;;;933.22;;
75071;SDS011;63651;55.728;38.022;2023-04-25T20:35:25;1065.22;;;980.15;;
75071;SDS011;63651;55.728;38.022;2023-04-25T20:40:26;1058.50;;;969.65;;
75071;SDS011;63651;55.728;38.022;2023-04-25T20:45:27;1082.70;;;990.22;;
75071;SDS011;63651;55.728;38.022;2023-04-25T20:50:32;1111.47;;;999.90;;
75071;SDS011;63651;55.728;38.022;2023-04-25T20:55:33;1059.28;;;970.90;;
75071;SDS011;63651;55.728;38.022;2023-04-25T21:00:34;1109.03;;;999.60;;
75071;SDS011;63651;55.728;38.022;2023-04-25T21:05:35;1077.05;;;982.33;;
75071;SDS011;63651;55.728;38.022;2023-04-25T21:10:37;1110.88;;;999.90;;
75071;SDS011;63651;55.728;38.022;2023-04-25T21:15:38;1152.28;;;999.90;;
75071;SDS011;63651;55.728;38.022;2023-04-25T21:20:39;1158.97;;;999.90;;
75071;SDS011;63651;55.728;38.022;2023-04-25T21:25:40;1151.20;;;999.90;;
75071;SDS011;63651;55.728;38.022;2023-04-25T21:30:42;1177.93;;;999.90;;
75071;SDS011;63651;55.728;38.022;2023-04-25T21:35:43;1244.00;;;999.90;;
75071;SDS011;63651;55.728;38.022;2023-04-25T21:40:45;1114.53;;;733.97;;
75071;SDS011;63651;55.728;38.022;2023-04-25T21:45:46;1999.90;;;999.90;;
75071;SDS011;63651;55.728;38.022;2023-04-25T21:50:47;1999.90;;;999.90;;
75071;SDS011;63651;55.728;38.022;2023-04-25T21:55:48;1999.90;;;999.90;;
75071;SDS011;63651;55.728;38.022;2023-04-25T22:01:04;1999.90;;;999.90;;
75071;SDS011;63651;55.728;38.022;2023-04-25T22:06:06;1999.90;;;999.90;;
75071;SDS011;63651;55.728;38.022;2023-04-25T22:11:07;1999.90;;;999.90;;
75071;SDS011;63651;55.728;38.022;2023-04-25T22:16:08;1999.90;;;999.90;;
75071;SDS011;63651;55.728;38.022;2023-04-25T22:21:11;1999.90;;;999.90;;
75071;SDS011;63651;55.728;38.022;2023-04-25T22:26:16;1999.90;;;999.90;;
75071;SDS011;63651;55.728;38.022;2023-04-25T22:31:17;1999.90;;;999.90;;
75071;SDS011;63651;55.728;38.022;2023-04-25T22:36:18;1999.90;;;999.90;;
75071;SDS011;63651;55.728;38.022;2023-04-25T22:41:19;1999.90;;;999.90;;
75071;SDS011;63651;55.728;38.022;2023-04-25T22:51:40;1999.90;;;999.90;;
75071;SDS011;63651;55.728;38.022;2023-04-25T22:56:42;1999.90;;;999.90;;
75071;SDS011;63651;55.728;38.022;2023-04-25T23:01:43;1999.90;;;999.90;;
75071;SDS011;63651;55.728;38.022;2023-04-25T23:07:03;1999.90;;;999.90;;
75071;SDS011;63651;55.728;38.022;2023-04-25T23:12:04;1999.90;;;999.90;;
75071;SDS011;63651;55.728;38.022;2023-04-25T23:17:06;1999.90;;;999.90;;
75071;SDS011;63651;55.728;38.022;2023-04-25T23:22:07;1999.90;;;999.90;;
75071;SDS011;63651;55.728;38.022;2023-04-25T23:27:08;1999.90;;;999.90;;
75071;SDS011;63651;55.728;38.022;2023-04-25T23:32:09;1999.90;;;999.90;;
75071;SDS011;63651;55.728;38.022;2023-04-25T23:37:12;1999.90;;;999.90;;
75071;SDS011;63651;55.728;38.022;2023-04-25T23:42:13;1999.90;;;999.90;;
75071;SDS011;63651;55.728;38.022;2023-04-25T23:47:14;1999.90;;;999.90;;
75071;SDS011;63651;55.728;38.022;2023-04-25T23:52:17;1999.90;;;999.90;;
75071;SDS011;63651;55.728;38.022;2023-04-25T23:57:18;1999.90;;;999.90;;
